Time;durP1;ratioP1;P1;durP2;ratioP2;P2;SDS_P1;SDS_P2;PMS_P1;PMS_P2;Temp;Humidity;BMP_temperature;BMP_pressure;BME280_temperature;BME280_humidity;BME280_pressure;Samples;Min_cycle;Max_cycle;Signal;HPM_P1;HPM_P2
2022/07/22 00:02:25;;;;;;;8.90;6.47;;;22.60;99.90;;;23.45;70.04;101010.13;5070005;28;20987;-64
2022/07/22 00:04:52;;;;;;;8.43;7.00;;;22.50;99.90;;;23.45;69.88;101017.28;5048921;28;20669;-64
2022/07/22 00:07:19;;;;;;;8.57;7.50;;;22.50;99.90;;;23.33;70.32;101013.44;5051808;28;20619;-67
2022/07/22 00:09:46;;;;;;;14.00;7.43;;;22.40;99.90;;;23.34;70.26;101012.44;5032587;28;20643;-64
2022/07/22 00:12:13;;;;;;;8.60;6.77;;;22.30;99.90;;;23.35;70.53;101020.25;5049255;28;20636;-68
2022/07/22 00:14:40;;;;;;;9.83;7.30;;;22.30;99.90;;;23.38;70.19;101013.72;5049714;28;21237;-65
2022/07/22 00:17:07;;;;;;;9.40;7.67;;;22.40;99.90;;;23.46;69.62;101002.97;5039068;28;20644;-66
2022/07/22 00:19:35;;;;;;;8.73;7.43;;;22.40;99.90;;;23.36;70.07;101005.91;5038986;28;20650;-66
2022/07/22 00:22:02;;;;;;;9.70;6.70;;;22.40;99.90;;;23.43;69.66;101009.47;5033387;28;20660;-67
2022/07/22 00:24:29;;;;;;;9.57;7.50;;;22.40;99.90;;;23.42;69.08;101009.69;5033899;28;20732;-66
2022/07/22 00:26:56;;;;;;;9.70;7.60;;;22.40;99.90;;;23.19;69.81;101008.91;5049690;28;20636;-67
2022/07/22 00:29:22;;;;;;;6.80;6.10;;;22.30;99.90;;;23.25;69.33;101002.84;5020384;28;20644;-67
2022/07/22 00:31:49;;;;;;;8.13;7.33;;;22.30;99.90;;;23.04;69.82;101001.72;5054452;28;21028;-64
2022/07/22 00:34:16;;;;;;;8.30;6.93;;;22.20;99.90;;;23.13;69.27;101005.13;5042557;28;20773;-66
2022/07/22 00:36:43;;;;;;;7.57;5.73;;;22.10;99.90;;;23.06;68.67;101007.69;5034758;28;20623;-67
2022/07/22 00:39:10;;;;;;;9.50;6.40;;;22.10;99.90;;;23.04;68.81;101007.03;5033960;28;20619;-67
2022/07/22 00:41:37;;;;;;;7.67;6.13;;;22.10;99.90;;;23.02;68.75;101014.38;5034968;28;20635;-65
2022/07/22 00:44:07;;;;;;;8.83;6.73;;;22.10;99.90;;;23.07;68.11;101012.00;5033789;28;20664;-67
2022/07/22 00:46:36;;;;;;;8.03;6.30;;;22.10;99.90;;;23.02;67.59;101014.38;5032932;28;20683;-64
2022/07/22 00:49:06;;;;;;;8.80;6.60;;;22.00;99.90;;;22.89;68.02;101016.84;5032883;28;20625;-65
2022/07/22 00:51:34;;;;;;;13.47;7.77;;;22.00;99.90;;;22.85;67.86;101010.22;5039281;28;20674;-66
2022/07/22 00:54:03;;;;;;;7.60;6.30;;;21.90;99.90;;;22.91;67.60;101012.16;5044166;28;20730;-64
2022/07/22 00:56:30;;;;;;;9.20;6.23;;;21.90;99.90;;;22.90;67.49;101012.34;5031685;28;20612;-65
2022/07/22 00:59:01;;;;;;;8.00;6.87;;;21.90;99.90;;;22.92;67.56;101008.50;5016213;28;20612;-65
2022/07/22 01:01:29;;;;;;;9.37;6.67;;;21.90;99.90;;;22.89;67.78;101005.38;5031133;28;20669;-66
2022/07/22 01:03:56;;;;;;;8.37;6.33;;;21.90;99.90;;;22.78;68.12;101005.81;5032902;28;20647;-65
2022/07/22 01:06:29;;;;;;;8.97;6.43;;;21.90;99.90;;;22.82;67.61;101002.63;5032120;28;21265;-67
2022/07/22 01:08:57;;;;;;;7.43;5.63;;;21.90;99.90;;;22.87;67.20;101004.75;5035779;28;21188;-65
2022/07/22 01:11:25;;;;;;;8.27;6.60;;;21.90;99.90;;;22.76;67.35;101011.31;5037866;28;20633;-67
2022/07/22 01:13:54;;;;;;;6.13;5.53;;;21.80;99.90;;;22.75;67.24;101012.31;5029542;28;21271;-67
2022/07/22 01:16:24;;;;;;;7.93;6.17;;;21.80;99.90;;;22.77;67.64;101010.31;5028144;28;21243;-67
2022/07/22 01:18:51;;;;;;;7.73;6.93;;;21.70;99.90;;;22.78;67.54;101011.97;5045999;28;20629;-64
2022/07/22 01:21:19;;;;;;;9.70;7.10;;;21.70;99.90;;;22.87;66.90;101010.88;5031358;28;21058;-68
2022/07/22 01:23:47;;;;;;;8.30;6.73;;;21.80;99.90;;;22.79;67.26;101008.28;5012287;28;21221;-66
2022/07/22 01:26:15;;;;;;;7.13;5.53;;;21.80;99.90;;;22.82;67.34;101013.25;5030961;28;21005;-66
2022/07/22 01:28:43;;;;;;;7.33;6.53;;;21.80;99.90;;;22.98;66.44;101018.41;5013475;28;20648;-64
2022/07/22 01:31:10;;;;;;;7.30;6.50;;;21.90;99.90;;;22.90;66.94;101015.84;5033014;28;20633;-67
2022/07/22 01:33:37;;;;;;;7.97;6.00;;;21.90;99.90;;;22.92;66.43;101023.63;5025882;28;20667;-66
2022/07/22 01:36:06;;;;;;;8.50;6.00;;;21.90;99.90;;;22.98;66.08;101014.91;5051424;28;21106;-65
2022/07/22 01:38:33;;;;;;;8.03;6.30;;;21.90;99.90;;;22.90;66.43;101023.81;5052676;28;21001;-66
2022/07/22 01:41:01;;;;;;;7.87;6.80;;;21.90;99.90;;;22.83;66.76;101024.72;5034304;28;20686;-67
2022/07/22 01:43:28;;;;;;;7.10;5.60;;;21.90;99.90;;;22.77;66.72;101018.28;5051853;28;21266;-66
2022/07/22 01:45:55;;;;;;;8.47;6.27;;;21.80;99.90;;;22.79;66.46;101021.59;5035554;28;20614;-64
2022/07/22 01:48:22;;;;;;;9.97;7.30;;;21.70;99.90;;;22.74;67.50;101016.00;5032066;28;20740;-66
2022/07/22 01:50:50;;;;;;;8.87;6.50;;;21.80;99.90;;;22.74;66.84;101013.34;5016059;28;20609;-66
2022/07/22 01:53:18;;;;;;;9.40;7.50;;;21.70;99.90;;;22.76;66.87;101013.97;5037805;28;20767;-64
2022/07/22 01:55:45;;;;;;;12.20;6.67;;;21.70;99.90;;;22.72;66.73;101017.97;5031305;28;20619;-64
2022/07/22 01:58:12;;;;;;;6.90;5.90;;;21.80;99.90;;;22.76;66.29;101021.13;5035621;28;20631;-69
2022/07/22 02:00:39;;;;;;;12.00;6.90;;;21.70;99.90;;;22.60;67.02;101015.94;5051425;28;20615;-65
2022/07/22 02:03:06;;;;;;;7.57;5.93;;;21.70;99.90;;;22.63;67.07;101013.75;5051230;28;20650;-66
2022/07/22 02:05:34;;;;;;;7.70;6.33;;;21.60;99.90;;;22.57;67.30;101014.44;5053415;28;21171;-64
2022/07/22 02:08:09;;;;;;;6.90;5.77;;;21.60;99.90;;;22.48;67.75;101017.34;5052399;28;20620;-65
2022/07/22 02:10:36;;;;;;;6.33;5.57;;;21.50;99.90;;;22.49;68.05;101025.13;5035449;28;20962;-67
2022/07/22 02:13:04;;;;;;;6.47;5.77;;;21.40;99.90;;;22.47;67.74;101013.84;5040200;28;20680;-67
2022/07/22 02:15:32;;;;;;;9.60;6.00;;;21.40;99.90;;;22.45;68.23;101017.69;5038173;28;21006;-64
2022/07/22 02:17:59;;;;;;;9.33;6.80;;;21.30;99.90;;;22.44;67.84;101011.56;5051667;28;20720;-67
2022/07/22 02:20:26;;;;;;;8.73;7.00;;;21.40;99.90;;;22.47;68.07;101019.16;5032524;28;20641;-64
2022/07/22 02:22:53;;;;;;;8.83;7.10;;;21.40;99.90;;;22.62;67.56;101008.59;5032237;28;20740;-68
2022/07/22 02:25:20;;;;;;;11.87;7.30;;;21.50;99.90;;;22.54;67.71;101008.63;5032425;28;20613;-67
2022/07/22 02:27:47;;;;;;;8.80;6.97;;;21.50;99.90;;;22.55;68.21;101013.81;5013240;28;20731;-66
2022/07/22 02:30:14;;;;;;;9.50;6.80;;;21.50;99.90;;;22.59;67.68;101014.28;5030924;28;20637;-63
2022/07/22 02:32:41;;;;;;;10.03;7.10;;;21.50;99.90;;;22.57;67.49;101016.28;5013176;28;20657;-65
2022/07/22 02:35:08;;;;;;;9.70;7.00;;;21.60;99.90;;;22.45;68.19;101021.16;5002188;28;20660;-66
2022/07/22 02:37:37;;;;;;;8.20;6.87;;;21.50;99.90;;;22.48;67.95;101010.19;5033339;28;20703;-65
2022/07/22 02:40:08;;;;;;;9.30;7.53;;;21.50;99.90;;;22.49;67.93;101011.81;5046268;28;20660;-65
2022/07/22 02:42:35;;;;;;;10.03;6.73;;;21.50;99.90;;;22.51;67.72;101015.13;5031004;28;20716;-68
2022/07/22 02:45:03;;;;;;;9.83;7.23;;;21.50;99.90;;;22.48;67.81;101014.66;5032261;28;20640;-70
2022/07/22 02:47:30;;;;;;;9.13;6.53;;;21.50;99.90;;;22.54;67.54;101017.44;4996273;28;21027;-66
2022/07/22 02:49:57;;;;;;;10.70;7.57;;;21.50;99.90;;;22.47;67.52;101007.72;5035191;28;20640;-67
2022/07/22 02:52:24;;;;;;;10.20;7.40;;;21.50;99.90;;;22.42;68.00;101008.25;5030858;28;20716;-67
2022/07/22 02:54:51;;;;;;;11.53;7.50;;;21.50;99.90;;;22.48;67.66;101004.88;5028776;28;20772;-69
2022/07/22 02:57:18;;;;;;;9.70;7.70;;;21.50;99.90;;;22.40;67.96;101015.56;5030947;28;20621;-68
2022/07/22 02:59:45;;;;;;;8.10;6.83;;;21.50;99.90;;;22.38;67.90;101009.59;5013433;28;21283;-67
2022/07/22 03:02:12;;;;;;;10.23;7.00;;;21.40;99.90;;;22.41;67.13;101019.88;5010646;28;20634;-66
2022/07/22 03:04:39;;;;;;;11.47;7.97;;;21.50;99.90;;;22.44;67.33;101016.88;5032806;28;20739;-68
2022/07/22 03:07:06;;;;;;;8.97;6.43;;;21.40;99.90;;;22.34;67.24;101018.91;5038520;28;21057;-65
2022/07/22 03:09:33;;;;;;;11.47;7.53;;;21.40;99.90;;;22.30;67.41;101020.28;5031947;28;20613;-67
2022/07/22 03:12:00;;;;;;;9.20;7.50;;;21.30;99.90;;;22.25;67.75;101026.13;5029868;28;20631;-67
2022/07/22 03:14:27;;;;;;;9.57;6.90;;;21.30;99.90;;;22.15;67.70;101016.72;5037759;28;20759;-68
2022/07/22 03:16:54;;;;;;;8.60;6.97;;;21.20;99.90;;;22.03;68.00;101011.00;5025132;28;20614;-66
2022/07/22 03:19:21;;;;;;;11.67;7.90;;;21.20;99.90;;;21.85;68.65;101017.56;5016290;28;20757;-67
2022/07/22 03:21:48;;;;;;;11.37;7.70;;;21.00;99.90;;;21.76;68.77;101019.41;5026785;28;20644;-68
2022/07/22 03:24:15;;;;;;;13.30;7.60;;;21.00;99.90;;;21.84;68.47;101024.72;5030114;28;20637;-67
2022/07/22 03:26:42;;;;;;;11.20;7.13;;;21.00;99.90;;;21.82;68.79;101020.53;5030034;28;20609;-68
2022/07/22 03:29:09;;;;;;;10.40;7.80;;;20.90;99.90;;;21.87;68.51;101020.88;5030408;28;20623;-66
2022/07/22 03:31:36;;;;;;;9.60;7.90;;;20.90;99.90;;;21.85;68.44;101022.88;5021765;28;20660;-68
2022/07/22 03:34:03;;;;;;;8.67;7.20;;;21.00;99.90;;;21.86;68.20;101021.88;5044523;28;20710;-66
2022/07/22 03:36:30;;;;;;;9.13;7.00;;;20.90;99.90;;;21.90;68.53;101023.19;5032760;28;20611;-69
2022/07/22 03:38:58;;;;;;;8.60;6.70;;;21.00;99.90;;;21.84;68.55;101034.50;5032543;28;20652;-67
2022/07/22 03:41:26;;;;;;;10.20;7.33;;;20.90;99.90;;;21.84;68.67;101021.22;5034122;28;20622;-68
2022/07/22 03:43:53;;;;;;;11.90;8.13;;;20.90;99.90;;;21.75;69.20;101031.03;5032531;28;20656;-67
2022/07/22 03:46:23;;;;;;;11.00;7.80;;;20.90;99.90;;;21.72;69.32;101027.88;5032929;28;20631;-65
2022/07/22 03:48:50;;;;;;;15.50;7.60;;;20.80;99.90;;;21.87;69.16;101023.53;5045568;28;20881;-69
2022/07/22 03:51:25;;;;;;;9.93;6.90;;;20.80;99.90;;;21.74;69.26;101025.91;5030760;28;21269;-66
2022/07/22 03:53:58;;;;;;;11.00;7.13;;;20.80;99.90;;;21.59;70.17;101037.22;5033642;28;20772;-68
2022/07/22 03:56:25;;;;;;;11.97;8.87;;;20.70;99.90;;;21.61;69.98;101035.22;5030103;28;20616;-65
2022/07/22 03:58:52;;;;;;;13.10;7.70;;;20.70;99.90;;;21.60;70.07;101032.75;5028812;28;20643;-65
2022/07/22 04:01:19;;;;;;;11.50;7.87;;;20.70;99.90;;;21.57;70.01;101028.59;5009015;28;21177;-69
2022/07/22 04:03:48;;;;;;;11.60;7.87;;;20.70;99.90;;;21.71;69.77;101031.53;5020691;28;21271;-67
2022/07/22 04:06:16;;;;;;;11.00;8.07;;;20.80;99.90;;;21.64;70.03;101029.56;5051011;28;20691;-65
2022/07/22 04:08:43;;;;;;;10.80;7.33;;;20.80;99.90;;;21.60;70.14;101032.75;5031881;28;20619;-69
2022/07/22 04:11:10;;;;;;;14.07;8.97;;;20.80;99.90;;;21.73;69.46;101032.19;5050213;28;20647;-64
2022/07/22 04:13:37;;;;;;;11.73;8.53;;;20.80;99.90;;;21.83;69.26;101022.22;5032232;28;20652;-65
2022/07/22 04:16:04;;;;;;;10.97;7.80;;;20.90;99.90;;;22.00;68.46;101021.97;5031179;28;20724;-66
2022/07/22 04:18:32;;;;;;;11.10;8.03;;;21.00;99.90;;;22.05;68.22;101030.25;5029180;28;20634;-66
2022/07/22 04:20:59;;;;;;;11.57;7.50;;;21.10;99.90;;;22.12;67.95;101022.41;5012657;28;20636;-67
2022/07/22 04:23:26;;;;;;;10.90;8.20;;;21.20;99.90;;;22.33;67.33;101017.28;5029452;28;21289;-65
2022/07/22 04:25:53;;;;;;;12.80;7.80;;;21.30;99.90;;;22.34;67.16;101013.59;5012734;28;21071;-67
2022/07/22 04:28:20;;;;;;;11.87;8.63;;;21.40;99.90;;;22.33;66.82;101017.28;5013825;28;20613;-65
2022/07/22 04:30:48;;;;;;;12.37;8.80;;;21.40;99.90;;;22.47;67.21;101019.16;5023503;28;20640;-66
2022/07/22 04:33:15;;;;;;;12.13;8.00;;;21.40;99.90;;;22.67;65.99;101015.06;5033630;28;20648;-65
2022/07/22 04:35:43;;;;;;;14.27;7.50;;;21.60;99.90;;;22.77;65.82;101014.78;5049952;28;21245;-65
2022/07/22 04:38:10;;;;;;;10.43;7.07;;;21.70;99.90;;;22.84;65.37;101013.91;5048868;28;20636;-66
2022/07/22 04:40:37;;;;;;;11.17;7.90;;;21.80;99.90;;;22.85;65.27;101017.41;5050436;28;20611;-64
2022/07/22 04:43:04;;;;;;;10.53;7.50;;;21.80;99.90;;;23.11;64.68;101017.78;5050889;28;20623;-66
2022/07/22 04:45:31;;;;;;;8.00;6.30;;;22.00;99.90;;;23.14;63.95;101018.28;5020387;28;20625;-64
2022/07/22 04:47:58;;;;;;;9.03;6.70;;;22.00;99.90;;;23.35;63.38;101022.06;5012262;28;20705;-66
2022/07/22 04:50:24;;;;;;;9.10;7.37;;;22.10;99.90;;;23.53;62.27;101020.69;5026223;28;20636;-66
2022/07/22 04:52:51;;;;;;;7.93;6.60;;;22.40;99.90;;;23.63;61.62;101020.41;5028588;28;20767;-68
2022/07/22 04:55:18;;;;;;;11.50;8.03;;;22.50;99.90;;;23.63;61.57;101015.09;5025408;28;21117;-65
2022/07/22 04:57:46;;;;;;;9.90;7.63;;;22.60;99.90;;;23.72;61.07;101017.44;5049610;28;20618;-65
2022/07/22 05:00:15;;;;;;;7.70;6.27;;;22.70;99.90;;;23.78;61.08;101022.06;5030568;28;20608;-70
2022/07/22 05:02:42;;;;;;;10.57;7.20;;;22.80;99.90;;;23.76;61.61;101020.56;5017388;28;20651;-67
2022/07/22 05:05:09;;;;;;;10.30;7.30;;;22.70;99.90;;;23.94;61.40;101026.31;5035411;28;20622;-65
2022/07/22 05:07:36;;;;;;;10.37;7.60;;;22.80;99.90;;;24.17;60.58;101027.03;5029231;28;20663;-65
2022/07/22 05:10:04;;;;;;;8.80;7.03;;;23.00;99.90;;;24.40;59.42;101022.38;5033365;28;20616;-67
2022/07/22 05:12:32;;;;;;;9.47;6.27;;;23.20;99.90;;;24.56;58.83;101030.09;5030643;28;20638;-67
2022/07/22 05:14:58;;;;;;;10.50;7.80;;;23.30;99.90;;;24.73;58.17;101030.66;5013672;28;20748;-67
2022/07/22 05:17:25;;;;;;;10.60;7.57;;;23.50;99.90;;;24.86;57.75;101030.78;5051992;28;20644;-67
2022/07/22 05:19:53;;;;;;;10.60;6.63;;;23.60;99.90;;;24.82;58.00;101020.69;5031929;28;20629;-67
2022/07/22 05:22:20;;;;;;;11.47;7.13;;;23.60;99.90;;;24.81;57.82;101033.22;5016760;28;20651;-67
2022/07/22 05:24:47;;;;;;;9.60;6.80;;;23.60;99.90;;;24.90;57.80;101029.38;5031939;28;20710;-67
2022/07/22 05:27:14;;;;;;;12.13;8.13;;;23.70;99.90;;;25.16;57.13;101029.59;5046828;28;20643;-67
2022/07/22 05:29:41;;;;;;;11.73;7.57;;;23.90;99.90;;;25.07;57.44;101035.25;5052487;28;20649;-68
2022/07/22 05:32:08;;;;;;;11.33;7.00;;;23.80;99.90;;;25.24;56.93;101036.59;5035131;28;20732;-65
2022/07/22 05:34:35;;;;;;;8.63;6.70;;;23.90;99.90;;;25.24;56.25;101036.59;5032641;28;20660;-68
2022/07/22 05:37:02;;;;;;;9.57;8.03;;;23.80;99.90;;;25.38;56.11;101031.16;5033069;28;20600;-67
2022/07/22 05:39:29;;;;;;;11.13;8.00;;;23.90;99.90;;;25.40;56.26;101025.63;5032180;28;20620;-69
2022/07/22 05:41:56;;;;;;;9.23;7.77;;;24.10;99.90;;;25.58;55.51;101025.13;5031476;28;20956;-65
2022/07/22 05:44:23;;;;;;;9.20;7.10;;;24.30;99.90;;;25.71;55.20;101022.50;5032570;28;20639;-69
2022/07/22 05:46:50;;;;;;;10.70;8.60;;;24.60;99.90;;;25.95;54.21;101022.84;5033784;28;20663;-67
2022/07/22 05:49:17;;;;;;;9.27;7.30;;;24.80;99.90;;;26.21;53.67;101023.97;5031630;28;21438;-66
2022/07/22 05:51:44;;;;;;;10.53;7.17;;;25.00;99.90;;;26.49;52.88;101024.63;5032653;28;20621;-67
2022/07/22 05:54:11;;;;;;;10.67;9.53;;;25.40;99.90;;;26.68;51.93;101021.94;5044499;22;20719;-67
2022/07/22 05:56:38;;;;;;;13.67;9.10;;;25.60;99.90;;;26.68;51.59;101016.59;5032747;28;20620;-68
2022/07/22 05:59:05;;;;;;;9.10;7.43;;;25.70;99.90;;;26.75;51.83;101009.44;5032226;28;20613;-68
2022/07/22 06:01:32;;;;;;;10.10;7.80;;;25.80;99.90;;;27.03;50.66;101009.19;5029030;28;20740;-69
2022/07/22 06:03:59;;;;;;;10.30;7.33;;;26.00;99.40;;;27.40;49.69;101027.31;5013422;28;20634;-68
2022/07/22 06:06:26;;;;;;;12.90;7.27;;;26.20;98.80;;;27.91;48.27;101019.28;5012327;28;20624;-68
2022/07/22 06:08:53;;;;;;;9.07;8.00;;;26.60;98.20;;;28.26;46.83;101028.59;5012876;28;20610;-68
2022/07/22 06:11:21;;;;;;;7.20;6.50;;;26.90;97.30;;;28.48;46.31;101031.75;5022347;28;20687;-69
2022/07/22 06:13:47;;;;;;;10.27;7.37;;;27.20;96.70;;;28.31;46.43;101019.91;5030137;28;20641;-71
2022/07/22 06:16:14;;;;;;;11.30;7.90;;;27.30;96.20;;;29.07;45.21;101025.91;5030703;28;20679;-68
2022/07/22 06:18:41;;;;;;;8.77;7.87;;;27.70;95.40;;;29.47;44.38;101027.19;5031191;28;20661;-71
2022/07/22 06:21:08;;;;;;;10.00;7.73;;;28.00;94.80;;;29.92;43.26;101019.63;5031689;28;21194;-68
2022/07/22 06:23:35;;;;;;;12.50;8.10;;;28.30;94.10;;;30.45;42.23;101030.50;5047033;28;20719;-68
2022/07/22 06:26:03;;;;;;;9.30;8.27;;;28.60;93.50;;;31.26;40.09;101027.88;5030686;28;20636;-69
2022/07/22 06:28:30;;;;;;;6.70;5.20;;;29.10;92.40;;;31.27;38.93;101024.13;5029472;28;20846;-68
2022/07/22 06:30:57;;;;;;;9.80;8.20;;;29.20;91.20;;;31.75;38.49;101016.56;5030841;28;20751;-68
2022/07/22 06:33:24;;;;;;;7.93;6.73;;;29.40;91.00;;;32.56;37.14;101024.28;5031130;28;21055;-68
2022/07/22 06:35:51;;;;;;;10.63;7.87;;;29.90;89.90;;;32.63;36.81;101030.38;5031338;28;20665;-68
2022/07/22 06:38:18;;;;;;;9.60;7.40;;;29.90;88.80;;;33.10;35.97;101021.91;5032457;28;20703;-69
2022/07/22 06:40:57;;;;;;;10.50;7.10;;;30.00;87.60;;;34.01;34.52;101021.25;5029977;28;20636;-70
2022/07/22 06:43:24;;;;;;;7.43;6.73;;;30.70;85.60;;;34.41;33.15;101016.22;5032165;28;20641;-71
2022/07/22 06:45:51;;;;;;;7.40;6.57;;;30.80;84.10;;;34.83;32.40;101008.97;5030224;28;20643;-70
2022/07/22 06:48:18;;;;;;;8.60;6.90;;;31.00;82.60;;;35.56;31.53;101018.94;5032341;28;21008;-72
2022/07/22 06:50:46;;;;;;;8.17;6.40;;;31.50;80.70;;;35.46;31.26;101007.19;5031030;28;20747;-70
2022/07/22 06:53:19;;;;;;;5.80;5.30;;;31.40;79.40;;;36.14;30.42;101008.81;5028491;28;20730;-69
2022/07/22 06:55:47;;;;;;;7.57;6.20;;;32.10;77.70;;;37.15;28.63;101020.47;5029804;28;20673;-73
2022/07/22 06:58:14;;;;;;;8.70;7.47;;;32.50;75.60;;;36.14;30.32;101012.31;5029625;28;20704;-70
2022/07/22 07:00:41;;;;;;;7.63;6.73;;;32.10;75.30;;;36.70;29.27;101020.50;5030757;28;20609;-69
2022/07/22 07:03:08;;;;;;;9.20;8.13;;;32.40;73.60;;;37.05;29.37;101020.50;5030840;28;20635;-69
2022/07/22 07:05:55;;;;;;;7.53;6.80;;;32.70;73.10;;;37.13;28.99;101015.31;5030610;28;21156;-70
2022/07/22 07:08:22;;;;;;;6.90;5.87;;;32.60;72.70;;;38.19;28.19;101011.28;5029537;28;20628;-66
2022/07/22 07:10:49;;;;;;;8.40;6.80;;;33.40;71.10;;;37.26;28.98;101005.75;5030511;28;20632;-69
2022/07/22 07:13:16;;;;;;;8.30;6.77;;;33.30;69.90;;;39.02;26.67;101001.84;5030762;28;20621;-67
2022/07/22 07:15:43;;;;;;;7.03;5.80;;;34.20;68.20;;;40.33;24.99;101002.84;5030532;28;20661;-69
2022/07/22 07:18:10;;;;;;;7.50;6.80;;;35.20;66.20;;;40.86;24.42;101000.59;5029404;28;21016;-68
2022/07/22 07:20:37;;;;;;;8.40;7.57;;;35.60;64.00;;;40.24;24.77;100991.78;5030827;28;21386;-67
2022/07/22 07:23:05;;;;;;;6.47;5.90;;;35.50;63.00;;;40.55;24.42;100997.56;5031025;28;20620;-68
2022/07/22 07:25:32;;;;;;;7.47;6.77;;;35.70;62.00;;;39.61;25.54;100987.81;5005998;28;20624;-67
2022/07/22 07:27:59;;;;;;;6.30;4.93;;;35.10;62.10;;;41.20;23.63;100987.31;5006623;28;21250;-67
2022/07/22 07:30:26;;;;;;;6.00;5.50;;;35.80;61.30;;;42.58;22.21;100981.97;5030368;28;20715;-67
2022/07/22 07:32:53;;;;;;;6.90;6.10;;;36.50;60.00;;;42.71;21.85;100988.47;5029386;28;20663;-68
2022/07/22 07:35:20;;;;;;;7.77;6.43;;;36.90;58.50;;;43.68;21.00;100980.75;5030940;28;21409;-68
2022/07/22 07:37:53;;;;;;;7.07;6.47;;;37.40;57.50;;;42.93;21.72;100980.22;5029079;28;21047;-65
2022/07/22 07:40:20;;;;;;;6.77;6.07;;;37.10;57.40;;;44.02;20.50;100988.22;5028922;28;21152;-68
2022/07/22 07:42:47;;;;;;;7.17;6.53;;;37.50;56.70;;;42.86;21.81;100975.19;5034042;28;20637;-67
2022/07/22 07:45:31;;;;;;;6.83;6.23;;;37.40;55.90;;;43.03;21.37;100972.50;5029442;28;20678;-67
2022/07/22 07:47:59;;;;;;;7.60;6.73;;;37.20;55.90;;;43.46;21.26;100966.31;5028332;28;21204;-67
2022/07/22 07:50:26;;;;;;;7.43;6.20;;;37.20;56.10;;;43.67;21.15;100968.16;5029679;28;20628;-69
2022/07/22 07:52:53;;;;;;;6.70;6.20;;;37.50;55.70;;;43.64;21.02;100965.25;5023289;28;20644;-69
2022/07/22 07:55:23;;;;;;;7.23;6.00;;;37.90;54.50;;;44.56;20.22;100965.47;5029372;28;21259;-67
2022/07/22 07:57:50;;;;;;;6.57;6.07;;;38.50;53.90;;;45.02;20.00;100963.84;5030005;28;20613;-67
2022/07/22 08:00:22;;;;;;;7.43;6.37;;;38.80;53.10;;;45.04;19.64;100961.56;5028449;28;20637;-68
2022/07/22 08:02:50;;;;;;;5.30;4.90;;;38.80;52.60;;;45.38;19.21;100966.91;5029727;28;21200;-67
2022/07/22 08:05:19;;;;;;;5.97;5.47;;;38.80;52.80;;;46.11;18.54;100968.09;5029301;28;20667;-68
2022/07/22 08:07:48;;;;;;;5.07;4.67;;;39.30;52.30;;;46.65;18.52;100960.53;5030784;28;20652;-64
2022/07/22 08:10:17;;;;;;;6.30;5.70;;;39.80;51.00;;;46.83;17.66;100962.75;5030034;28;20702;-64
2022/07/22 08:13:04;;;;;;;6.47;6.00;;;40.10;50.40;;;47.69;17.42;100952.44;5031122;28;20686;-67
2022/07/22 08:15:35;;;;;;;6.47;5.97;;;40.20;50.20;;;46.82;18.11;100955.63;5027923;28;20661;-68
2022/07/22 08:18:02;;;;;;;7.57;6.97;;;39.80;50.50;;;45.84;18.42;100958.44;5029701;28;20613;-68
2022/07/22 08:20:31;;;;;;;6.53;4.97;;;39.40;50.10;;;46.32;18.43;100957.88;5027459;28;21249;-67
2022/07/22 08:22:58;;;;;;;5.60;5.20;;;39.70;49.80;;;47.52;17.04;100948.78;5030176;28;20617;-68
2022/07/22 08:25:26;;;;;;;6.43;5.93;;;40.20;49.50;;;48.33;16.54;100955.03;5026538;28;20640;-67
2022/07/22 08:27:54;;;;;;;7.60;6.80;;;40.80;49.00;;;47.18;17.74;100948.47;5027966;28;21111;-67
2022/07/22 08:30:23;;;;;;;6.23;5.27;;;40.40;48.80;;;48.60;16.68;100945.88;5028953;28;20637;-66
2022/07/22 08:32:56;;;;;;;7.20;5.50;;;40.90;48.60;;;48.49;16.57;100955.88;5030300;28;21042;-67
2022/07/22 08:35:23;;;;;;;7.23;6.40;;;41.00;48.40;;;48.12;16.91;100946.97;5028142;28;20661;-67
2022/07/22 08:37:50;;;;;;;5.50;5.10;;;40.80;47.80;;;48.90;16.14;100945.03;5029980;28;20623;-67
2022/07/22 08:40:18;;;;;;;5.93;5.53;;;41.20;47.60;;;49.74;15.83;100946.16;5032766;28;21180;-67
2022/07/22 08:42:49;;;;;;;5.53;5.13;;;41.50;47.30;;;49.50;15.97;100940.88;5033754;28;20620;-67
2022/07/22 08:45:19;;;;;;;6.93;5.77;;;41.50;47.20;;;49.29;15.66;100940.41;5032519;28;20747;-67
2022/07/22 08:47:50;;;;;;;5.33;5.03;;;41.80;46.60;;;50.13;14.85;100935.81;5032897;28;20613;-67
2022/07/22 08:50:18;;;;;;;5.23;4.90;;;41.80;46.50;;;50.01;14.91;100944.28;5032566;28;20636;-66
2022/07/22 08:52:47;;;;;;;6.27;5.87;;;41.90;46.40;;;50.00;14.87;100936.34;5033550;28;21259;-67
2022/07/22 08:55:15;;;;;;;8.47;4.80;;;42.20;45.90;;;51.05;14.35;100931.81;5025026;28;20772;-67
2022/07/22 08:57:50;;;;;;;4.80;4.50;;;42.60;45.50;;;50.54;14.55;100936.97;5022345;28;20719;-67
2022/07/22 09:00:21;;;;;;;5.30;5.00;;;42.50;45.40;;;51.63;14.31;100929.41;5021645;28;20730;-67
2022/07/22 09:02:49;;;;;;;5.90;5.50;;;43.30;44.90;;;52.55;13.78;100932.00;5027934;28;20628;-67
2022/07/22 09:05:17;;;;;;;5.53;5.13;;;43.90;44.60;;;53.07;12.86;100930.78;5030508;28;20700;-67
2022/07/22 09:08:04;;;;;;;5.90;5.50;;;44.50;44.50;;;52.74;12.90;100933.72;5033971;28;20620;-67
2022/07/22 09:10:35;;;;;;;4.97;4.57;;;44.50;43.20;;;52.80;13.04;100925.81;5033166;28;20794;-68
2022/07/22 09:13:07;;;;;;;4.80;4.60;;;44.40;43.00;;;52.00;13.86;100927.47;5033223;28;20620;-67
2022/07/22 09:15:41;;;;;;;5.17;4.97;;;44.10;43.10;;;52.43;13.30;100918.34;5030630;28;20656;-68
2022/07/22 09:18:08;;;;;;;6.40;6.10;;;44.20;43.20;;;52.75;13.04;100915.81;5023771;28;20716;-67
2022/07/22 09:20:37;;;;;;;5.47;5.17;;;44.30;43.00;;;52.86;13.44;100908.34;5021430;28;20608;-69
2022/07/22 09:23:17;;;;;;;6.33;5.83;;;44.40;42.90;;;52.89;13.05;100906.75;5022991;28;20632;-67
2022/07/22 09:25:44;;;;;;;5.77;5.47;;;44.50;42.90;;;52.08;13.39;100909.66;5026994;28;20658;-68
2022/07/22 09:28:20;;;;;;;5.90;5.50;;;44.10;43.10;;;53.52;12.97;100909.91;5032360;28;21206;-67
2022/07/22 09:30:55;;;;;;;4.90;4.70;;;45.00;42.50;;;54.32;12.41;100911.25;5028273;28;20637;-65
2022/07/22 09:33:25;;;;;;;5.70;5.30;;;45.60;42.20;;;53.58;12.45;100910.31;5019021;28;20731;-67
2022/07/22 09:36:01;;;;;;;7.47;7.00;;;44.80;42.20;;;54.01;12.36;100900.84;5024408;28;20660;-67
2022/07/22 09:38:31;;;;;;;6.20;5.70;;;45.10;42.00;;;53.80;12.20;100906.41;5041313;28;20666;-67
2022/07/22 09:40:58;;;;;;;5.47;5.17;;;45.40;41.80;;;54.46;12.36;100899.28;5020468;28;20706;-69
2022/07/22 09:43:32;;;;;;;5.07;4.87;;;45.50;41.60;;;55.12;12.18;100901.16;5029241;28;20644;-67
2022/07/22 09:45:59;;;;;;;5.50;5.23;;;45.90;41.50;;;54.45;12.06;100903.28;5032258;28;20649;-67
2022/07/22 09:48:27;;;;;;;5.70;5.40;;;45.70;41.40;;;55.14;11.26;100895.97;5032852;28;20620;-69
2022/07/22 09:50:56;;;;;;;5.23;5.03;;;46.40;41.00;;;55.73;11.77;100898.88;5031837;28;20667;-70
2022/07/22 09:53:29;;;;;;;5.93;5.50;;;46.80;40.70;;;54.63;11.45;100898.47;5028781;28;20754;-70
2022/07/22 09:55:58;;;;;;;5.20;4.90;;;46.20;40.40;;;55.36;11.87;100886.28;5031025;28;20660;-69
2022/07/22 09:58:26;;;;;;;5.30;5.10;;;46.80;41.20;;;55.63;11.00;100888.53;5027524;28;20629;-69
2022/07/22 10:01:00;;;;;;;6.27;5.97;;;46.80;40.50;;;55.56;11.52;100882.97;5026394;28;20612;-69
2022/07/22 10:03:38;;;;;;;6.60;6.00;;;46.80;40.20;;;54.35;11.85;100874.13;5024351;28;20653;-68
2022/07/22 10:06:06;;;;;;;6.97;6.57;;;46.30;40.40;;;54.22;11.93;100872.16;5026658;28;20616;-68
2022/07/22 10:08:34;;;;;;;5.23;5.03;;;46.00;40.40;;;54.16;12.44;100868.97;5025820;28;20646;-69
2022/07/22 10:11:08;;;;;;;5.70;5.30;;;45.90;40.60;;;54.10;11.92;100864.19;5028295;28;21198;-69
2022/07/22 10:13:37;;;;;;;6.33;5.73;;;45.70;40.60;;;52.08;13.57;100850.38;5007038;28;20679;-67
2022/07/22 10:16:06;;;;;;;5.70;5.37;;;44.50;41.20;;;50.43;14.57;100839.56;5011555;28;21026;-67